Time;durP1;ratioP1;P1;durP2;ratioP2;P2;SDS_P1;SDS_P2;PMS_P1;PMS_P2;Temp;Humidity;BMP_temperature;BMP_pressure;BME280_temperature;BME280_humidity;BME280_pressure;Samples;Min_cycle;Max_cycle;Signal;HPM_P1;HPM_P2
2023/11/05 00:00:32;;;;;;;8.25;2.22;;;9.70;99.90;;;;;;5068991;28;20128;-70
2023/11/05 00:02:57;;;;;;;4.97;1.50;;;9.60;99.90;;;;;;5067774;28;20087;-69
2023/11/05 00:05:23;;;;;;;10.80;2.00;;;9.60;99.90;;;;;;5069037;28;20048;-70
2023/11/05 00:07:48;;;;;;;13.32;2.35;;;9.70;99.90;;;;;;5070844;28;20414;-70
2023/11/05 00:10:14;;;;;;;8.27;1.63;;;9.70;99.90;;;;;;5068042;28;20120;-70
2023/11/05 00:12:39;;;;;;;10.63;2.42;;;9.70;99.90;;;;;;5069776;28;20503;-70
2023/11/05 00:15:06;;;;;;;9.13;2.67;;;9.70;99.90;;;;;;5071742;28;20067;-70
2023/11/05 00:17:33;;;;;;;12.13;1.95;;;9.70;99.90;;;;;;5070002;28;21601;-70
2023/11/05 00:19:59;;;;;;;9.80;2.35;;;9.70;99.90;;;;;;5069243;28;20093;-70
2023/11/05 00:22:25;;;;;;;10.52;2.00;;;9.70;99.90;;;;;;5067896;28;20661;-70
2023/11/05 00:24:50;;;;;;;7.97;1.83;;;9.70;99.90;;;;;;5068786;28;20059;-70
2023/11/05 00:27:16;;;;;;;9.68;2.20;;;9.60;99.90;;;;;;5068004;28;20066;-70
2023/11/05 00:29:41;;;;;;;8.75;1.55;;;9.60;99.90;;;;;;5066902;28;20407;-70
2023/11/05 00:32:07;;;;;;;8.68;1.45;;;9.70;99.90;;;;;;5070675;28;20041;-70
2023/11/05 00:34:33;;;;;;;11.02;2.20;;;9.60;99.90;;;;;;5069566;28;20037;-70
2023/11/05 00:36:58;;;;;;;10.32;3.00;;;9.60;99.90;;;;;;5068594;28;20028;-70
2023/11/05 00:39:24;;;;;;;10.85;1.27;;;9.70;99.90;;;;;;5066373;28;20177;-70
2023/11/05 00:41:49;;;;;;;6.03;1.50;;;9.60;99.90;;;;;;5068233;28;20475;-70
2023/11/05 00:44:15;;;;;;;9.07;1.73;;;9.60;99.90;;;;;;5067403;28;20041;-70
2023/11/05 00:46:41;;;;;;;11.15;1.88;;;9.60;99.90;;;;;;5068289;28;20036;-70
2023/11/05 00:49:08;;;;;;;11.52;1.42;;;9.60;99.90;;;;;;5067699;28;20041;-69
2023/11/05 00:51:33;;;;;;;11.38;2.05;;;9.60;99.90;;;;;;5068845;28;20072;-69
2023/11/05 00:53:59;;;;;;;9.55;2.70;;;9.60;99.90;;;;;;5072157;28;20094;-70
2023/11/05 00:56:26;;;;;;;10.77;1.95;;;9.50;99.90;;;;;;5069868;28;20037;-70
2023/11/05 00:58:52;;;;;;;11.10;1.45;;;9.60;99.90;;;;;;5062262;28;20040;-70
2023/11/05 01:01:17;;;;;;;10.88;2.17;;;9.50;99.90;;;;;;5063068;28;20055;-70
2023/11/05 01:03:43;;;;;;;9.30;1.42;;;9.50;99.90;;;;;;5068584;28;20491;-70
2023/11/05 01:06:09;;;;;;;8.32;1.70;;;9.40;99.90;;;;;;5066023;28;20585;-70
2023/11/05 01:08:34;;;;;;;11.25;1.92;;;9.40;99.90;;;;;;5063934;28;20055;-70
2023/11/05 01:11:00;;;;;;;12.73;1.42;;;9.40;99.90;;;;;;5064529;28;20532;-70
2023/11/05 01:13:27;;;;;;;10.70;2.00;;;9.40;99.90;;;;;;5069045;28;20032;-70
2023/11/05 01:15:52;;;;;;;10.65;1.30;;;9.30;99.90;;;;;;5071380;28;20388;-70
2023/11/05 01:18:18;;;;;;;6.47;1.45;;;9.30;99.90;;;;;;5069557;28;20043;-70
2023/11/05 01:20:44;;;;;;;10.10;1.48;;;9.30;99.90;;;;;;5069054;28;20043;-70
2023/11/05 01:23:09;;;;;;;8.80;1.67;;;9.20;99.90;;;;;;5053427;28;20128;-70
2023/11/05 01:25:35;;;;;;;10.82;1.40;;;9.20;99.90;;;;;;5070935;28;20075;-70
2023/11/05 01:28:01;;;;;;;15.65;1.83;;;9.20;99.90;;;;;;5066144;28;20124;-70
2023/11/05 01:30:26;;;;;;;9.02;2.22;;;9.10;99.90;;;;;;5067991;28;20445;-70
2023/11/05 01:32:52;;;;;;;10.50;1.42;;;9.10;99.90;;;;;;5070467;28;20036;-70
2023/11/05 01:35:17;;;;;;;10.65;1.23;;;9.20;99.90;;;;;;5068027;28;20445;-69
2023/11/05 01:37:43;;;;;;;5.25;1.30;;;9.00;99.90;;;;;;5068558;28;20052;-69
2023/11/05 01:40:10;;;;;;;8.43;1.88;;;9.10;99.90;;;;;;5066549;28;20075;-69
2023/11/05 01:42:35;;;;;;;11.52;1.67;;;9.10;99.90;;;;;;5067107;28;20048;-70
2023/11/05 01:45:01;;;;;;;10.73;1.50;;;9.10;99.90;;;;;;5100317;28;20045;-70
2023/11/05 01:47:27;;;;;;;10.40;1.25;;;9.10;99.90;;;;;;5068331;28;20040;-70
2023/11/05 01:49:53;;;;;;;7.45;1.45;;;9.10;99.90;;;;;;5068345;28;20044;-70
2023/11/05 01:52:21;;;;;;;16.05;1.63;;;9.10;99.90;;;;;;5071261;28;20043;-70
2023/11/05 01:54:47;;;;;;;8.38;1.42;;;9.20;99.90;;;;;;5102377;28;20040;-70
2023/11/05 01:57:13;;;;;;;10.15;1.50;;;9.20;99.90;;;;;;5066513;28;20033;-70
2023/11/05 01:59:38;;;;;;;12.05;2.47;;;9.20;99.90;;;;;;5068743;28;20044;-70
2023/11/05 02:02:06;;;;;;;10.50;1.70;;;9.20;99.90;;;;;;5069642;28;20114;-70
2023/11/05 02:04:32;;;;;;;11.15;1.48;;;9.20;99.90;;;;;;5070335;28;20036;-70
2023/11/05 02:06:58;;;;;;;8.25;1.63;;;9.20;99.90;;;;;;5069125;28;20131;-70
2023/11/05 02:09:24;;;;;;;13.52;2.72;;;9.30;99.90;;;;;;5069778;28;20127;-70
2023/11/05 02:11:49;;;;;;;12.88;2.38;;;9.30;99.90;;;;;;5068152;28;20068;-70
2023/11/05 02:14:15;;;;;;;10.30;1.95;;;9.30;99.90;;;;;;5062034;28;20041;-70
2023/11/05 02:16:41;;;;;;;8.00;1.30;;;9.30;99.90;;;;;;5069248;28;20059;-70
2023/11/05 02:19:07;;;;;;;9.90;2.38;;;9.30;99.90;;;;;;5068930;28;20375;-70
2023/11/05 02:21:46;;;;;;;8.48;1.60;;;9.30;99.90;;;;;;5069880;28;20942;-70
2023/11/05 02:24:12;;;;;;;12.48;2.15;;;9.30;99.90;;;;;;5068687;28;20052;-70
2023/11/05 02:26:37;;;;;;;13.00;2.58;;;9.20;99.90;;;;;;5067922;28;20055;-70
2023/11/05 02:29:03;;;;;;;9.88;1.90;;;9.20;99.90;;;;;;5065063;28;20041;-70
2023/11/05 02:31:29;;;;;;;9.18;1.70;;;9.20;99.90;;;;;;5068494;28;20028;-70
2023/11/05 02:33:55;;;;;;;12.43;2.72;;;9.20;99.90;;;;;;5069969;28;20037;-70
2023/11/05 02:36:21;;;;;;;10.80;2.05;;;9.20;99.90;;;;;;5072125;28;20045;-70
2023/11/05 02:38:46;;;;;;;8.93;1.75;;;9.20;99.90;;;;;;5069499;28;20033;-70
2023/11/05 02:41:12;;;;;;;8.73;1.92;;;9.20;99.90;;;;;;5051908;28;20039;-70
2023/11/05 02:43:39;;;;;;;7.32;1.38;;;9.20;99.90;;;;;;5067457;28;20154;-70
2023/11/05 02:46:05;;;;;;;11.07;2.00;;;9.20;99.90;;;;;;5068083;28;20029;-70
2023/11/05 02:48:32;;;;;;;8.82;1.73;;;9.30;99.90;;;;;;5084351;28;20086;-70
2023/11/05 02:50:59;;;;;;;8.18;1.58;;;9.30;99.90;;;;;;5102046;28;20052;-70
2023/11/05 02:53:24;;;;;;;8.85;1.98;;;9.30;99.90;;;;;;5068439;28;20032;-70
2023/11/05 02:55:50;;;;;;;8.43;1.42;;;9.30;99.90;;;;;;5067646;28;20090;-70
2023/11/05 02:58:16;;;;;;;8.98;1.27;;;9.30;99.90;;;;;;5069884;28;20040;-70
2023/11/05 03:00:43;;;;;;;8.70;1.70;;;9.30;99.90;;;;;;5069191;28;20044;-70
2023/11/05 03:03:11;;;;;;;9.48;1.63;;;9.30;99.90;;;;;;5066486;28;20044;-70
2023/11/05 03:05:40;;;;;;;11.32;1.65;;;9.30;99.90;;;;;;5068273;28;20055;-70
2023/11/05 03:08:05;;;;;;;9.68;1.27;;;9.40;99.90;;;;;;5067141;28;20040;-70
2023/11/05 03:10:31;;;;;;;11.13;1.55;;;9.40;99.90;;;;;;5071996;28;20037;-70
2023/11/05 03:12:56;;;;;;;6.97;1.35;;;9.30;99.90;;;;;;5088166;28;20040;-70
2023/11/05 03:15:23;;;;;;;11.57;2.42;;;9.30;99.90;;;;;;5073405;28;20040;-70
2023/11/05 03:17:49;;;;;;;13.13;1.77;;;9.40;99.90;;;;;;5073243;28;20102;-70
2023/11/05 03:20:15;;;;;;;11.88;1.58;;;9.50;99.90;;;;;;5072628;28;20518;-70
2023/11/05 03:22:41;;;;;;;10.48;1.70;;;9.30;99.90;;;;;;5071712;28;20451;-70
2023/11/05 03:25:07;;;;;;;8.38;1.52;;;9.40;99.90;;;;;;5070343;28;20127;-70
2023/11/05 03:27:33;;;;;;;10.10;1.70;;;9.30;99.90;;;;;;5069898;28;20048;-70
2023/11/05 03:29:59;;;;;;;11.10;1.88;;;9.30;99.90;;;;;;5070806;28;20048;-70
2023/11/05 03:32:24;;;;;;;11.82;2.60;;;9.40;99.90;;;;;;5070601;28;20091;-70
2023/11/05 03:34:50;;;;;;;6.72;1.45;;;9.30;99.90;;;;;;5072176;28;20494;-70
2023/11/05 03:37:16;;;;;;;6.43;1.50;;;9.40;99.90;;;;;;5072894;28;20501;-70
2023/11/05 03:39:43;;;;;;;10.43;1.58;;;9.40;99.90;;;;;;5071508;28;20105;-70
2023/11/05 03:42:10;;;;;;;9.25;1.48;;;9.40;99.90;;;;;;5069761;28;20048;-70
2023/11/05 03:44:36;;;;;;;10.00;2.25;;;9.40;99.90;;;;;;5069680;28;20123;-70
2023/11/05 03:47:02;;;;;;;12.38;2.10;;;9.40;99.90;;;;;;5071197;28;20051;-70
2023/11/05 03:49:28;;;;;;;11.40;1.63;;;9.40;99.90;;;;;;5072440;28;20036;-70
2023/11/05 03:51:53;;;;;;;9.32;1.73;;;9.30;99.90;;;;;;5069265;28;20041;-70
2023/11/05 03:54:19;;;;;;;6.65;1.27;;;9.50;99.90;;;;;;5069980;28;20403;-70
2023/11/05 03:56:45;;;;;;;12.75;1.63;;;9.50;99.90;;;;;;5081790;28;20072;-70
2023/11/05 03:59:11;;;;;;;12.63;2.20;;;9.40;99.90;;;;;;5069453;28;20243;-70
2023/11/05 04:01:36;;;;;;;8.98;1.27;;;9.50;99.90;;;;;;5070124;28;20116;-70
2023/11/05 04:04:02;;;;;;;9.45;1.63;;;9.40;99.90;;;;;;5071080;28;20355;-70
2023/11/05 04:06:28;;;;;;;9.38;1.55;;;9.40;99.90;;;;;;5070862;28;20101;-70
2023/11/05 04:08:53;;;;;;;11.50;1.92;;;9.40;99.90;;;;;;5068335;28;20040;-70
2023/11/05 04:11:19;;;;;;;9.00;1.23;;;9.50;99.90;;;;;;5071095;28;20524;-70
2023/11/05 04:13:46;;;;;;;7.38;1.23;;;9.40;99.90;;;;;;5069915;28;20040;-70
2023/11/05 04:16:12;;;;;;;8.40;1.33;;;9.50;99.90;;;;;;5070387;28;20127;-70
2023/11/05 04:18:39;;;;;;;12.00;1.60;;;9.40;99.90;;;;;;5069911;28;20444;-70
2023/11/05 04:21:05;;;;;;;8.50;2.03;;;9.80;99.90;;;;;;5068922;28;20041;-70
2023/11/05 04:23:32;;;;;;;9.70;1.38;;;9.40;99.90;;;;;;5069361;28;20032;-70
2023/11/05 04:25:58;;;;;;;9.20;1.20;;;9.40;99.90;;;;;;5065626;28;20047;-70
2023/11/05 04:28:23;;;;;;;6.65;1.15;;;9.50;99.90;;;;;;5070621;28;20442;-70
2023/11/05 04:30:49;;;;;;;10.57;2.05;;;9.50;99.90;;;;;;5067836;28;20045;-70
2023/11/05 04:33:15;;;;;;;8.95;1.73;;;9.40;99.90;;;;;;5069931;28;20040;-71
2023/11/05 04:35:40;;;;;;;10.45;1.73;;;9.50;99.90;;;;;;5070543;28;20032;-70
2023/11/05 04:38:06;;;;;;;10.55;1.88;;;9.50;99.90;;;;;;5070701;28;20040;-70
2023/11/05 04:40:31;;;;;;;11.70;2.10;;;9.40;99.90;;;;;;5071033;28;20041;-70
2023/11/05 04:42:57;;;;;;;13.63;2.25;;;9.40;99.90;;;;;;5068819;28;20394;-70
2023/11/05 04:45:23;;;;;;;7.13;1.63;;;9.50;99.90;;;;;;5069008;28;20131;-70
2023/11/05 04:47:48;;;;;;;6.88;2.13;;;9.40;99.90;;;;;;5069507;28;20047;-70
2023/11/05 04:50:14;;;;;;;10.75;2.08;;;9.40;99.90;;;;;;5069271;28;20118;-71
2023/11/05 04:52:40;;;;;;;14.80;2.40;;;9.40;99.90;;;;;;5069913;28;20040;-70
2023/11/05 04:55:06;;;;;;;7.50;2.47;;;9.40;99.90;;;;;;5067657;28;21930;-70
2023/11/05 04:57:32;;;;;;;9.35;2.28;;;9.50;99.90;;;;;;5069680;28;20040;-70
2023/11/05 04:59:58;;;;;;;11.43;2.15;;;9.40;99.90;;;;;;5069710;28;20391;-70
2023/11/05 05:02:24;;;;;;;10.07;2.50;;;9.40;99.90;;;;;;5071461;28;20037;-71
2023/11/05 05:04:51;;;;;;;7.47;1.83;;;9.40;99.90;;;;;;5070179;28;20558;-70
2023/11/05 05:07:17;;;;;;;7.78;1.85;;;9.40;99.90;;;;;;5069119;28;20124;-70
2023/11/05 05:09:42;;;;;;;10.07;2.20;;;9.40;99.90;;;;;;5067867;28;20566;-71
2023/11/05 05:12:08;;;;;;;10.77;2.42;;;9.40;99.90;;;;;;5068214;28;20761;-70
2023/11/05 05:14:34;;;;;;;7.28;2.13;;;9.40;99.90;;;;;;5067212;28;20049;-70
2023/11/05 05:17:00;;;;;;;9.93;2.80;;;9.90;99.90;;;;;;5068678;28;20032;-70
2023/11/05 05:19:26;;;;;;;8.80;2.50;;;9.40;99.90;;;;;;5069621;28;20461;-71
2023/11/05 05:21:51;;;;;;;8.05;2.60;;;9.40;99.90;;;;;;5069612;28;20123;-70
2023/11/05 05:24:17;;;;;;;7.10;2.42;;;9.30;99.90;;;;;;5068670;28;20037;-70
2023/11/05 05:26:43;;;;;;;9.18;2.65;;;9.40;99.90;;;;;;5063431;28;20036;-70
2023/11/05 05:29:09;;;;;;;7.80;2.33;;;9.40;99.90;;;;;;5066882;28;20052;-70
2023/11/05 05:31:35;;;;;;;8.02;2.83;;;9.40;99.90;;;;;;5063042;28;20082;-70
2023/11/05 05:34:01;;;;;;;10.02;2.53;;;9.40;99.90;;;;;;5068631;28;20041;-70
2023/11/05 05:36:27;;;;;;;10.32;2.50;;;9.40;99.90;;;;;;5070735;28;20082;-70
2023/11/05 05:38:52;;;;;;;8.48;2.97;;;9.40;99.90;;;;;;5068518;28;20068;-70
2023/11/05 05:41:18;;;;;;;7.38;2.17;;;9.40;99.90;;;;;;5068667;28;20028;-70
2023/11/05 05:43:44;;;;;;;7.20;2.42;;;9.40;99.90;;;;;;5068924;28;20066;-70
2023/11/05 05:46:16;;;;;;;9.55;2.88;;;9.40;99.90;;;;;;5067276;28;20077;-71
2023/11/05 05:48:42;;;;;;;8.60;2.95;;;9.40;99.90;;;;;;5067667;28;20087;-70
2023/11/05 05:51:12;;;;;;;8.93;2.88;;;9.40;99.90;;;;;;5067645;28;20068;-70
2023/11/05 05:53:38;;;;;;;6.82;2.75;;;9.50;99.90;;;;;;5079443;28;20046;-70
2023/11/05 05:56:05;;;;;;;7.85;2.60;;;9.40;99.90;;;;;;5068121;28;20043;-71
2023/11/05 05:58:30;;;;;;;8.80;3.20;;;9.50;99.90;;;;;;5097815;28;20056;-71
2023/11/05 06:00:56;;;;;;;8.02;2.92;;;9.40;99.90;;;;;;5066474;28;20478;-70
2023/11/05 06:03:22;;;;;;;5.60;2.50;;;9.50;99.90;;;;;;5068535;28;20455;-70
2023/11/05 06:05:47;;;;;;;9.63;2.83;;;9.50;99.90;;;;;;5067014;28;20479;-70
2023/11/05 06:08:13;;;;;;;9.57;3.15;;;9.40;99.90;;;;;;5064082;28;20063;-70
2023/11/05 06:10:39;;;;;;;11.38;4.57;;;9.50;99.90;;;;;;5065994;28;21000;-70
2023/11/05 06:13:05;;;;;;;7.45;2.67;;;9.40;99.90;;;;;;5066695;28;20044;-70
2023/11/05 06:15:31;;;;;;;4.38;2.95;;;9.50;99.90;;;;;;5064690;28;20052;-70
2023/11/05 06:17:57;;;;;;;6.63;2.47;;;9.40;99.90;;;;;;5098901;28;20051;-70
2023/11/05 06:20:22;;;;;;;6.32;2.30;;;9.40;99.90;;;;;;5047381;28;20055;-70
2023/11/05 06:22:48;;;;;;;5.93;3.10;;;9.40;99.90;;;;;;5067691;28;20032;-70
2023/11/05 06:25:13;;;;;;;4.05;2.20;;;9.40;99.90;;;;;;5069659;28;20040;-70
2023/11/05 06:27:41;;;;;;;6.43;3.03;;;9.40;99.90;;;;;;5065640;28;20413;-70
2023/11/05 06:30:08;;;;;;;3.78;2.15;;;9.50;99.90;;;;;;5097554;28;20107;-70
2023/11/05 06:32:34;;;;;;;4.80;2.42;;;9.50;99.90;;;;;;5067576;28;20560;-70
2023/11/05 06:35:01;;;;;;;3.58;2.53;;;9.50;99.90;;;;;;5068344;28;20029;-71
2023/11/05 06:37:27;;;;;;;5.20;3.00;;;9.50;99.90;;;;;;5065826;28;20040;-71
2023/11/05 06:39:53;;;;;;;6.55;3.08;;;9.50;99.90;;;;;;5065726;28;20054;-71
2023/11/05 06:42:18;;;;;;;6.25;2.92;;;9.40;99.90;;;;;;5067670;28;20436;-71
2023/11/05 06:44:45;;;;;;;6.53;2.65;;;9.50;99.90;;;;;;5072275;28;20123;-71
2023/11/05 06:47:11;;;;;;;3.15;2.65;;;9.50;99.90;;;;;;5072729;28;20044;-70
2023/11/05 06:49:36;;;;;;;7.18;3.20;;;9.50;99.90;;;;;;5072204;28;20118;-71
2023/11/05 06:52:02;;;;;;;4.80;3.40;;;9.50;99.90;;;;;;5071223;28;20033;-71
2023/11/05 06:54:28;;;;;;;4.72;3.60;;;9.50;99.90;;;;;;5088509;28;20483;-70
2023/11/05 06:56:54;;;;;;;4.38;3.97;;;9.50;99.90;;;;;;5068434;28;20048;-71
2023/11/05 06:59:19;;;;;;;5.72;4.40;;;9.60;99.90;;;;;;5051492;28;20043;-70
2023/11/05 07:01:47;;;;;;;4.30;3.90;;;9.60;99.90;;;;;;5069678;28;20040;-70
2023/11/05 07:04:13;;;;;;;7.07;4.47;;;9.50;99.90;;;;;;5067216;28;20817;-70
2023/11/05 07:06:38;;;;;;;7.25;4.88;;;9.60;99.90;;;;;;5069785;28;20169;-70
2023/11/05 07:09:06;;;;;;;6.50;4.15;;;9.60;99.90;;;;;;5099425;28;20135;-71
2023/11/05 07:11:32;;;;;;;8.45;5.05;;;9.60;99.90;;;;;;5069926;28;20036;-70
2023/11/05 07:13:58;;;;;;;5.50;5.00;;;9.60;99.90;;;;;;5065301;28;20438;-70
2023/11/05 07:16:25;;;;;;;7.03;5.00;;;9.70;99.90;;;;;;5061615;28;20036;-70
2023/11/05 07:18:52;;;;;;;7.45;5.30;;;9.60;99.90;;;;;;5069432;28;20713;-70
2023/11/05 07:21:17;;;;;;;6.00;5.20;;;9.70;99.90;;;;;;5070151;28;20043;-70
2023/11/05 07:23:43;;;;;;;5.40;4.70;;;9.70;99.90;;;;;;5072173;28;20029;-70
2023/11/05 07:26:10;;;;;;;7.20;5.43;;;9.70;99.90;;;;;;5070626;28;20075;-70
2023/11/05 07:28:36;;;;;;;6.18;5.57;;;9.80;99.90;;;;;;5062065;28;20482;-70
2023/11/05 07:31:02;;;;;;;6.82;5.60;;;9.80;99.90;;;;;;5068838;28;20036;-70
2023/11/05 07:33:28;;;;;;;6.28;5.68;;;9.80;99.90;;;;;;5069892;28;20049;-70
2023/11/05 07:35:54;;;;;;;5.78;5.28;;;9.80;99.90;;;;;;5071132;28;20043;-70
2023/11/05 07:38:21;;;;;;;11.10;5.15;;;9.80;99.90;;;;;;5052485;28;20067;-70
2023/11/05 07:40:47;;;;;;;6.30;5.30;;;9.90;99.90;;;;;;5070541;28;20070;-70
2023/11/05 07:43:14;;;;;;;8.95;5.40;;;9.90;99.90;;;;;;5047580;28;20063;-70
2023/11/05 07:45:40;;;;;;;8.60;5.40;;;10.00;99.90;;;;;;5068493;28;20178;-70
2023/11/05 07:48:05;;;;;;;9.57;5.60;;;10.10;99.90;;;;;;5067029;28;20048;-70
2023/11/05 07:50:31;;;;;;;8.80;5.22;;;10.20;99.90;;;;;;5066259;28;20033;-70
2023/11/05 07:52:57;;;;;;;9.15;4.68;;;10.30;99.90;;;;;;5068416;28;20193;-70
2023/11/05 07:55:23;;;;;;;9.07;4.45;;;10.30;99.90;;;;;;5066999;28;20113;-70
2023/11/05 07:57:49;;;;;;;5.57;3.80;;;10.30;99.90;;;;;;5067298;28;20123;-70
2023/11/05 08:00:17;;;;;;;5.68;3.72;;;10.40;99.90;;;;;;5062590;28;20044;-70
2023/11/05 08:02:44;;;;;;;8.05;4.38;;;10.40;99.90;;;;;;5060659;28;20044;-70
2023/11/05 08:05:10;;;;;;;5.15;4.00;;;10.60;99.90;;;;;;5064466;28;20049;-70
2023/11/05 08:07:36;;;;;;;7.03;3.35;;;10.30;99.90;;;;;;5102291;28;20434;-70
2023/11/05 08:10:06;;;;;;;6.55;3.65;;;10.40;99.90;;;;;;5098184;28;20048;-70
2023/11/05 08:12:32;;;;;;;7.55;3.58;;;10.30;99.90;;;;;;5069885;28;20907;-70
2023/11/05 08:14:58;;;;;;;6.55;3.80;;;10.30;99.90;;;;;;5069518;28;20037;-70
2023/11/05 08:17:23;;;;;;;7.78;3.13;;;10.30;99.90;;;;;;5101882;28;20162;-70
2023/11/05 08:19:50;;;;;;;4.82;4.32;;;10.40;99.90;;;;;;5067948;28;20131;-70
2023/11/05 08:22:16;;;;;;;6.60;3.20;;;10.40;99.90;;;;;;5070213;28;20399;-70
2023/11/05 08:24:43;;;;;;;6.25;3.50;;;10.30;99.90;;;;;;5068823;28;20037;-70
2023/11/05 08:27:10;;;;;;;5.20;3.88;;;10.40;99.90;;;;;;5064653;28;20046;-71
2023/11/05 08:29:36;;;;;;;5.22;3.47;;;10.40;99.90;;;;;;5067312;28;20048;-70
2023/11/05 08:32:01;;;;;;;4.97;3.13;;;10.40;99.90;;;;;;5066833;28;20032;-70
2023/11/05 08:34:27;;;;;;;7.30;3.28;;;10.40;99.90;;;;;;5068626;28;20125;-70
2023/11/05 08:36:54;;;;;;;3.97;2.83;;;10.50;99.90;;;;;;5067878;28;20037;-70
2023/11/05 08:39:20;;;;;;;5.03;3.15;;;10.50;99.90;;;;;;5065835;28;20040;-70
2023/11/05 08:41:46;;;;;;;6.30;3.60;;;10.50;99.90;;;;;;5096738;28;20070;-70
2023/11/05 08:44:12;;;;;;;8.40;3.30;;;10.50;99.90;;;;;;5066554;28;20032;-70
2023/11/05 08:46:38;;;;;;;7.47;3.15;;;10.50;99.90;;;;;;5065235;28;20918;-70
2023/11/05 08:49:04;;;;;;;7.93;3.22;;;10.50;99.90;;;;;;5048462;28;20044;-70
2023/11/05 08:51:33;;;;;;;9.55;3.60;;;10.50;99.90;;;;;;5064207;28;20089;-70
2023/11/05 08:53:59;;;;;;;9.40;3.22;;;10.50;99.90;;;;;;5065039;28;20041;-70
2023/11/05 08:56:26;;;;;;;4.63;2.95;;;10.60;99.90;;;;;;5067122;28;20843;-70
2023/11/05 08:58:52;;;;;;;4.80;2.70;;;10.60;99.90;;;;;;5066386;28;21026;-70
2023/11/05 09:01:18;;;;;;;4.88;2.95;;;10.70;99.90;;;;;;5064152;28;20122;-70
2023/11/05 09:03:45;;;;;;;4.72;3.00;;;10.70;99.90;;;;;;5068222;28;20040;-70
2023/11/05 09:06:11;;;;;;;9.80;3.55;;;10.70;99.90;;;;;;5065320;28;20032;-70
2023/11/05 09:08:38;;;;;;;5.30;2.80;;;10.80;99.90;;;;;;5067074;28;20063;-70
2023/11/05 09:11:04;;;;;;;8.65;2.83;;;10.90;99.90;;;;;;5068650;28;20493;-70
2023/11/05 09:13:30;;;;;;;5.60;2.65;;;10.80;99.90;;;;;;5067279;28;20040;-70
2023/11/05 09:15:56;;;;;;;5.90;2.60;;;10.90;99.90;;;;;;5070663;28;20021;-70
2023/11/05 09:18:21;;;;;;;4.95;3.05;;;11.00;99.90;;;;;;5066823;28;20044;-70
2023/11/05 09:20:47;;;;;;;5.82;2.20;;;11.00;99.90;;;;;;5067758;28;20471;-70
2023/11/05 09:23:13;;;;;;;6.57;2.72;;;11.00;99.90;;;;;;5068015;28;20040;-70
2023/11/05 09:25:41;;;;;;;8.68;3.05;;;11.10;99.90;;;;;;5067211;28;20127;-70
2023/11/05 09:28:07;;;;;;;4.47;2.80;;;11.10;99.90;;;;;;5065758;28;20557;-70
2023/11/05 09:30:33;;;;;;;9.38;2.80;;;11.10;99.90;;;;;;5066771;28;20115;-70
2023/11/05 09:32:58;;;;;;;3.35;2.30;;;11.20;99.90;;;;;;5068536;28;20060;-70
2023/11/05 09:35:25;;;;;;;5.88;2.35;;;11.50;99.90;;;;;;5069809;28;20068;-70
2023/11/05 09:37:50;;;;;;;8.40;2.67;;;11.20;99.90;;;;;;5067351;28;20033;-70
2023/11/05 09:40:16;;;;;;;5.75;2.35;;;11.20;99.90;;;;;;5065082;28;20675;-70
2023/11/05 09:43:11;;;;;;;5.95;2.63;;;11.20;99.90;;;;;;5067436;28;20123;-70
2023/11/05 09:45:37;;;;;;;7.28;2.47;;;11.20;99.90;;;;;;5065271;28;20062;-70
2023/11/05 09:48:08;;;;;;;5.28;2.72;;;11.30;99.90;;;;;;5066265;28;20040;-70
2023/11/05 09:50:37;;;;;;;8.80;2.75;;;11.30;99.90;;;;;;5097597;28;20040;-70
2023/11/05 09:53:14;;;;;;;6.60;2.50;;;11.20;99.90;;;;;;5068077;28;20103;-70
2023/11/05 09:55:41;;;;;;;8.32;2.40;;;11.20;99.90;;;;;;5065718;28;20171;-70
2023/11/05 09:58:09;;;;;;;7.22;2.45;;;11.20;99.90;;;;;;5064133;28;20048;-69
2023/11/05 10:00:36;;;;;;;8.77;2.70;;;11.20;99.90;;;;;;5078161;28;20233;-70
2023/11/05 10:03:07;;;;;;;5.53;2.20;;;11.20;99.90;;;;;;5063566;28;20041;-70
2023/11/05 10:05:34;;;;;;;5.43;2.22;;;11.20;99.90;;;;;;5095988;28;20506;-70
2023/11/05 10:08:00;;;;;;;12.07;3.22;;;11.30;99.90;;;;;;5065283;28;20036;-70
2023/11/05 10:10:26;;;;;;;6.65;2.55;;;11.30;99.90;;;;;;5097224;28;20110;-70
2023/11/05 10:12:53;;;;;;;5.90;2.90;;;11.50;99.90;;;;;;5065232;28;20040;-70
2023/11/05 10:15:20;;;;;;;5.38;3.13;;;11.50;99.90;;;;;;5063446;28;20060;-70
2023/11/05 10:17:46;;;;;;;6.35;2.90;;;11.40;99.90;;;;;;5065776;28;20127;-70
2023/11/05 10:20:11;;;;;;;7.82;2.97;;;11.50;99.90;;;;;;5095132;28;20112;-70
2023/11/05 10:22:43;;;;;;;9.88;3.83;;;11.50;99.90;;;;;;5063283;28;20043;-70
2023/11/05 10:25:25;;;;;;;8.07;3.20;;;11.70;99.90;;;;;;5063459;28;20041;-71
2023/11/05 10:27:55;;;;;;;8.25;3.42;;;11.90;99.90;;;;;;5058107;28;20033;-70
2023/11/05 10:30:21;;;;;;;9.18;3.38;;;12.00;99.90;;;;;;5073698;28;20110;-70
2023/11/05 10:32:51;;;;;;;8.52;3.55;;;12.00;99.90;;;;;;5062724;28;20124;-71
2023/11/05 10:35:19;;;;;;;8.90;3.08;;;12.20;99.90;;;;;;5066284;28;20047;-70
2023/11/05 10:37:51;;;;;;;10.18;3.67;;;12.10;99.90;;;;;;5063077;28;20139;-70
2023/11/05 10:40:17;;;;;;;9.70;4.97;;;12.20;99.90;;;;;;5062332;28;20054;-70
2023/11/05 10:42:45;;;;;;;9.50;4.20;;;12.20;99.90;;;;;;5067541;28;20424;-70
2023/11/05 10:45:13;;;;;;;11.07;4.90;;;12.20;99.90;;;;;;5066513;28;20041;-70
2023/11/05 10:47:39;;;;;;;8.77;4.28;;;12.20;99.90;;;;;;5076172;27;20128;-70
2023/11/05 10:50:27;;;;;;;11.68;4.82;;;12.10;99.90;;;;;;5077874;28;20060;-70
2023/11/05 10:53:03;;;;;;;8.23;4.05;;;12.10;99.90;;;;;;5061179;28;20059;-70
2023/11/05 10:55:33;;;;;;;8.07;3.60;;;12.10;99.90;;;;;;5042540;28;20051;-70
2023/11/05 10:57:59;;;;;;;10.18;4.47;;;12.10;99.90;;;;;;5063522;28;20037;-70
2023/11/05 11:00:25;;;;;;;12.82;4.15;;;12.10;99.90;;;;;;5058973;28;20533;-70
2023/11/05 11:02:53;;;;;;;12.68;4.97;;;12.10;99.90;;;;;;5093192;28;20115;-70
2023/11/05 11:05:44;;;;;;;8.18;4.00;;;12.20;99.90;;;;;;5062411;28;20052;-70
2023/11/05 11:08:11;;;;;;;13.35;5.22;;;12.10;99.90;;;;;;5062510;28;20665;-71
2023/11/05 11:10:38;;;;;;;10.82;4.25;;;12.10;99.90;;;;;;5061714;28;20097;-70
2023/11/05 11:13:12;;;;;;;12.73;5.18;;;12.00;99.90;;;;;;5069800;28;20048;-70
2023/11/05 11:15:39;;;;;;;11.65;5.25;;;12.00;99.90;;;;;;5068596;28;20475;-70
2023/11/05 11:18:14;;;;;;;12.32;4.05;;;12.00;99.90;;;;;;5096396;28;20048;-70
2023/11/05 11:20:41;;;;;;;9.57;4.33;;;11.90;99.90;;;;;;5064887;28;20475;-69
2023/11/05 11:23:07;;;;;;;8.98;4.28;;;12.00;99.90;;;;;;5063810;28;20067;-69
2023/11/05 11:25:33;;;;;;;12.07;4.03;;;12.00;99.90;;;;;;5060925;28;20044;-70
2023/11/05 11:28:00;;;;;;;9.30;4.55;;;12.10;99.90;;;;;;5067665;28;20052;-69
2023/11/05 11:30:26;;;;;;;9.50;3.67;;;12.20;99.90;;;;;;5071360;28;20041;-69
2023/11/05 11:32:53;;;;;;;7.55;3.60;;;12.20;99.90;;;;;;5074384;28;20033;-69
2023/11/05 11:35:20;;;;;;;9.77;3.78;;;12.30;99.90;;;;;;5073828;28;20040;-70
2023/11/05 11:37:46;;;;;;;8.77;3.38;;;12.50;99.90;;;;;;5074108;28;20036;-69
2023/11/05 11:40:15;;;;;;;9.27;4.22;;;12.50;99.90;;;;;;5072828;28;20043;-69
2023/11/05 11:42:41;;;;;;;8.85;4.03;;;12.60;99.90;;;;;;5073026;28;20181;-70
2023/11/05 11:45:07;;;;;;;9.60;3.40;;;12.60;99.90;;;;;;5071879;28;20131;-70
2023/11/05 11:47:33;;;;;;;9.60;3.35;;;12.60;99.90;;;;;;5070740;28;20089;-69
2023/11/05 11:50:09;;;;;;;10.38;3.15;;;12.70;99.90;;;;;;5086252;28;20047;-70
2023/11/05 11:52:52;;;;;;;8.75;3.80;;;12.60;99.90;;;;;;5069903;28;20036;-70
2023/11/05 11:55:18;;;;;;;7.28;3.40;;;12.60;99.90;;;;;;5051614;28;20044;-69
2023/11/05 11:57:45;;;;;;;6.00;2.47;;;12.60;99.90;;;;;;5053899;28;20037;-70
2023/11/05 12:00:20;;;;;;;4.40;2.95;;;12.60;99.90;;;;;;5069229;28;20052;-70
2023/11/05 12:02:48;;;;;;;8.05;3.05;;;12.50;99.90;;;;;;5099797;28;20045;-70
2023/11/05 12:05:14;;;;;;;7.75;3.60;;;12.60;99.90;;;;;;5071631;28;20044;-70
2023/11/05 12:07:47;;;;;;;7.10;3.60;;;12.50;99.90;;;;;;5068179;28;20509;-70
2023/11/05 12:10:17;;;;;;;5.82;4.30;;;12.50;99.90;;;;;;5070077;28;20166;-70
2023/11/05 12:12:43;;;;;;;7.10;3.47;;;12.50;99.90;;;;;;5102003;28;20033;-70
2023/11/05 12:15:19;;;;;;;10.23;4.93;;;12.40;99.90;;;;;;5071847;28;20044;-70
2023/11/05 12:17:46;;;;;;;8.23;3.08;;;12.50;99.90;;;;;;5067083;28;20112;-70
2023/11/05 12:20:14;;;;;;;9.77;3.38;;;12.40;99.90;;;;;;5068776;28;20698;-70
2023/11/05 12:22:46;;;;;;;7.90;3.60;;;12.40;99.90;;;;;;5065010;28;20047;-70
2023/11/05 12:25:12;;;;;;;6.65;2.97;;;12.40;99.90;;;;;;5080215;28;20486;-70
2023/11/05 12:27:48;;;;;;;5.72;3.08;;;12.30;99.90;;;;;;5069967;28;20045;-70
2023/11/05 12:30:21;;;;;;;7.00;3.08;;;12.30;99.90;;;;;;5065967;28;20048;-70
2023/11/05 12:32:52;;;;;;;8.00;3.33;;;12.30;99.90;;;;;;5066958;28;20044;-71
2023/11/05 12:35:18;;;;;;;6.60;2.90;;;12.20;99.90;;;;;;5067639;28;20041;-70
2023/11/05 12:37:44;;;;;;;6.28;2.85;;;12.10;99.90;;;;;;5066654;28;20483;-70
2023/11/05 12:40:11;;;;;;;7.93;3.28;;;12.00;99.90;;;;;;5060810;28;20048;-70
2023/11/05 12:42:37;;;;;;;7.88;3.50;;;12.00;99.90;;;;;;5068378;28;20090;-70
2023/11/05 12:45:04;;;;;;;4.97;2.65;;;12.30;99.90;;;;;;5075736;28;20039;-70
2023/11/05 12:47:30;;;;;;;7.90;3.05;;;12.00;99.90;;;;;;5064912;28;20042;-70